createdAt,value
2023-03-19T00:00:28.182Z,99436.03
2023-03-19T00:01:10.003Z,99453.91
2023-03-19T00:01:51.872Z,99440.03
2023-03-19T00:02:33.837Z,99458.09
2023-03-19T00:03:15.986Z,99442.63
2023-03-19T00:03:57.713Z,99424.00
2023-03-19T00:04:39.513Z,99441.16
2023-03-19T00:05:21.588Z,99455.72
2023-03-19T00:06:03.906Z,99456.56
2023-03-19T00:06:45.843Z,99446.34
2023-03-19T00:07:27.726Z,99447.81
2023-03-19T00:08:09.442Z,99451.72
2023-03-19T00:08:51.205Z,99448.34
2023-03-19T00:09:33.048Z,99441.41
2023-03-19T00:10:14.862Z,99456.97
2023-03-19T00:10:56.519Z,99453.69
2023-03-19T00:11:38.734Z,99466.00
2023-03-19T00:12:20.417Z,99462.91
2023-03-19T00:13:02.114Z,99465.47
2023-03-19T00:13:43.804Z,99460.53
2023-03-19T00:14:25.698Z,99449.88
2023-03-19T00:15:09.177Z,99459.63
2023-03-19T00:15:50.997Z,99471.66
2023-03-19T00:16:32.911Z,99473.84
2023-03-19T00:17:14.608Z,99471.78
2023-03-19T00:17:56.619Z,99469.78
2023-03-19T00:18:38.433Z,99449.44
2023-03-19T00:19:20.671Z,99452.63
2023-03-19T00:20:02.776Z,99444.81
2023-03-19T00:20:44.809Z,99435.88
2023-03-19T00:21:28.460Z,99459.13
2023-03-19T00:22:11.914Z,99452.91
2023-03-19T00:22:53.659Z,99451.06
2023-03-19T00:23:36.359Z,99479.06
2023-03-19T00:24:18.169Z,99470.88
2023-03-19T00:24:59.895Z,99466.75
2023-03-19T00:25:42.146Z,99467.13
2023-03-19T00:26:23.847Z,99459.84
2023-03-19T00:27:05.737Z,99471.78
2023-03-19T00:27:47.533Z,99469.31
2023-03-19T00:28:29.744Z,99450.19
2023-03-19T00:29:12.769Z,99467.13
2023-03-19T00:29:55.401Z,99473.50
2023-03-19T00:30:37.200Z,99468.81
2023-03-19T00:31:18.954Z,99465.53
2023-03-19T00:32:01.233Z,99468.53
2023-03-19T00:32:43.085Z,99457.88
2023-03-19T00:33:25.727Z,99459.16
2023-03-19T00:34:08.533Z,99457.78
2023-03-19T00:34:50.972Z,99473.84
2023-03-19T00:35:32.992Z,99459.38
2023-03-19T00:36:16.362Z,99477.69
2023-03-19T00:36:58.353Z,99459.94
2023-03-19T00:37:40.543Z,99456.53
2023-03-19T00:38:22.793Z,99470.94
2023-03-19T00:39:05.433Z,99466.50
2023-03-19T00:39:50.308Z,99472.31
2023-03-19T00:40:33.518Z,99472.97
2023-03-19T00:41:17.298Z,99475.53
2023-03-19T00:41:59.094Z,99466.03
2023-03-19T00:42:42.114Z,99482.63
2023-03-19T00:43:23.888Z,99478.69
2023-03-19T00:44:06.423Z,99464.59
2023-03-19T00:44:48.181Z,99476.34
2023-03-19T00:45:30.858Z,99465.59
2023-03-19T00:46:13.751Z,99461.56
2023-03-19T00:46:58.789Z,99438.78
2023-03-19T00:47:40.840Z,99442.50
2023-03-19T00:48:23.176Z,99444.41
2023-03-19T00:49:04.943Z,99456.78
2023-03-19T00:49:46.736Z,99455.31
2023-03-19T00:50:28.550Z,99434.19
2023-03-19T00:51:11.588Z,99451.69
2023-03-19T00:51:53.285Z,99461.72
2023-03-19T00:52:34.969Z,99454.63
2023-03-19T00:53:17.066Z,99444.88
2023-03-19T00:53:58.731Z,99439.84
2023-03-19T00:54:40.553Z,99444.25
2023-03-19T00:55:22.874Z,99460.47
2023-03-19T00:56:05.724Z,99454.91
2023-03-19T00:56:47.564Z,99443.97
2023-03-19T00:57:29.360Z,99468.06
2023-03-19T00:58:11.569Z,99448.16
2023-03-19T00:58:53.462Z,99453.72
2023-03-19T00:59:35.336Z,99452.63
2023-03-19T01:00:19.367Z,99452.53
2023-03-19T01:01:02.090Z,99445.69
2023-03-19T01:01:44.094Z,99446.03
2023-03-19T01:02:26.206Z,99451.25
2023-03-19T01:03:07.937Z,99437.09
2023-03-19T01:03:49.855Z,99447.84
2023-03-19T01:04:31.862Z,99428.78
2023-03-19T01:05:14.686Z,99431.78
2023-03-19T01:05:58.619Z,99457.13
2023-03-19T01:06:40.709Z,99445.63
2023-03-19T01:07:22.594Z,99440.81
2023-03-19T01:08:04.340Z,99453.13
2023-03-19T01:08:46.304Z,99457.78
2023-03-19T01:09:28.086Z,99470.47
2023-03-19T01:10:10.930Z,99453.97
2023-03-19T01:10:52.892Z,99450.41
2023-03-19T01:11:34.813Z,99449.78
2023-03-19T01:12:17.263Z,99465.28
2023-03-19T01:12:58.985Z,99430.44
2023-03-19T01:13:42.150Z,99473.94
2023-03-19T01:14:24.528Z,99469.13
2023-03-19T01:15:08.935Z,99465.91
2023-03-19T01:15:53.662Z,99466.56
2023-03-19T01:16:36.334Z,99456.53
2023-03-19T01:17:18.603Z,99452.44
2023-03-19T01:18:01.087Z,99467.56
2023-03-19T01:18:43.208Z,99463.09
2023-03-19T01:19:24.912Z,99463.28
2023-03-19T01:20:15.508Z,99446.59
2023-03-19T01:20:57.440Z,99444.59
2023-03-19T01:21:39.622Z,99437.50
2023-03-19T01:22:21.400Z,99459.13
2023-03-19T01:23:08.959Z,99451.72
2023-03-19T01:23:52.118Z,99466.59
2023-03-19T01:24:35.264Z,99452.72
2023-03-19T01:25:17.165Z,99467.03
2023-03-19T01:26:08.478Z,99453.91
2023-03-19T01:26:50.869Z,99454.91
2023-03-19T01:27:46.177Z,99463.66
2023-03-19T01:28:29.145Z,99478.59
2023-03-19T01:29:11.457Z,99465.31
2023-03-19T01:29:53.502Z,99462.66
2023-03-19T01:30:51.833Z,99473.59
2023-03-19T01:31:52.324Z,99462.38
2023-03-19T01:32:56.961Z,99482.81
2023-03-19T01:33:57.577Z,99467.50
2023-03-19T01:34:54.250Z,99467.66
2023-03-19T01:35:36.075Z,99480.44
2023-03-19T01:36:18.442Z,99475.88
2023-03-19T01:37:15.384Z,99454.06
2023-03-19T01:37:58.307Z,99469.28
2023-03-19T01:38:40.594Z,99471.22
2023-03-19T01:39:28.684Z,99470.59
2023-03-19T01:40:13.851Z,99477.50
2023-03-19T01:40:56.333Z,99472.88
2023-03-19T01:41:38.315Z,99459.94
2023-03-19T01:43:12.487Z,99479.00
2023-03-19T01:44:28.937Z,99445.34
2023-03-19T01:45:37.902Z,99479.72
2023-03-19T01:46:39.270Z,99477.31
2023-03-19T01:47:43.297Z,99470.66
2023-03-19T01:48:44.576Z,99483.78
2023-03-19T01:49:31.118Z,99468.03
2023-03-19T01:50:42.177Z,99478.50
2023-03-19T01:51:46.502Z,99481.13
2023-03-19T01:52:54.075Z,99484.06
2023-03-19T01:54:00.864Z,99465.00
2023-03-19T01:55:05.030Z,99470.31
2023-03-19T01:56:14.506Z,99478.78
2023-03-19T01:57:16.160Z,99479.69
2023-03-19T01:58:17.890Z,99460.84
2023-03-19T01:59:30.720Z,99475.59
2023-03-19T02:00:39.323Z,99499.66
2023-03-19T02:01:21.347Z,99483.59
2023-03-19T02:02:25.185Z,99499.03
2023-03-19T02:03:07.581Z,99503.31
2023-03-19T02:04:07.593Z,99507.34
2023-03-19T02:04:56.453Z,99503.94
2023-03-19T02:05:41.475Z,99495.41
2023-03-19T02:06:26.916Z,99500.78
2023-03-19T02:07:11.326Z,99502.41
2023-03-19T02:07:56.764Z,99491.28
2023-03-19T02:08:39.466Z,99497.47
2023-03-19T02:09:21.604Z,99494.53
2023-03-19T02:10:08.611Z,99488.63
2023-03-19T02:10:52.713Z,99516.06
2023-03-19T02:11:34.549Z,99503.75
2023-03-19T02:12:17.979Z,99513.31
2023-03-19T02:12:59.819Z,99491.97
2023-03-19T02:13:41.744Z,99497.91
2023-03-19T02:14:24.025Z,99509.38
2023-03-19T02:15:07.186Z,99500.19
2023-03-19T02:15:51.037Z,99510.38
2023-03-19T02:16:33.299Z,99500.63
2023-03-19T02:17:15.871Z,99506.13
2023-03-19T02:17:58.292Z,99505.03
2023-03-19T02:18:40.729Z,99489.06
2023-03-19T02:19:31.926Z,99507.41
2023-03-19T02:20:39.415Z,99511.25
2023-03-19T02:21:22.053Z,99508.06
2023-03-19T02:22:05.229Z,99496.94
2023-03-19T02:23:00.805Z,99508.63
2023-03-19T02:24:18.087Z,99509.09
2023-03-19T02:25:24.942Z,99481.00
2023-03-19T02:26:09.218Z,99505.50
2023-03-19T02:26:51.675Z,99509.25
2023-03-19T02:27:34.311Z,99475.53
2023-03-19T02:28:19.097Z,99486.00
2023-03-19T02:29:04.106Z,99503.97
2023-03-19T02:29:49.605Z,99503.59
2023-03-19T02:30:34.373Z,99492.47
2023-03-19T02:31:21.922Z,99508.97
2023-03-19T02:32:03.952Z,99505.50
2023-03-19T02:32:45.957Z,99498.84
2023-03-19T02:33:27.838Z,99491.28
2023-03-19T02:34:09.644Z,99512.97
2023-03-19T02:34:51.627Z,99508.97
2023-03-19T02:35:35.734Z,99518.03
2023-03-19T02:36:20.254Z,99498.75
2023-03-19T02:37:09.017Z,99505.63
2023-03-19T02:37:51.236Z,99518.75
2023-03-19T02:38:34.358Z,99516.91
2023-03-19T02:39:23.571Z,99509.34
2023-03-19T02:40:36.348Z,99513.81
2023-03-19T02:41:19.011Z,99511.44
2023-03-19T02:42:02.205Z,99493.91
2023-03-19T02:42:46.283Z,99510.44
2023-03-19T02:43:29.691Z,99520.81
2023-03-19T02:44:12.647Z,99518.34
2023-03-19T02:44:54.835Z,99517.53
2023-03-19T02:45:36.591Z,99519.34
2023-03-19T02:46:18.515Z,99493.38
2023-03-19T02:47:00.456Z,99496.00
2023-03-19T02:47:42.544Z,99493.53
2023-03-19T02:48:24.966Z,99510.69
2023-03-19T02:49:06.846Z,99521.28
2023-03-19T02:49:48.683Z,99496.09
2023-03-19T02:50:30.496Z,99487.78
2023-03-19T02:51:13.491Z,99492.16
2023-03-19T02:51:55.306Z,99517.16
2023-03-19T02:52:37.301Z,99513.53
2023-03-19T02:53:19.109Z,99505.28
2023-03-19T02:54:01.011Z,99501.66
2023-03-19T02:54:42.893Z,99504.94
2023-03-19T02:55:24.967Z,99518.06
2023-03-19T02:56:07.477Z,99512.69
2023-03-19T02:56:49.354Z,99502.03
2023-03-19T02:57:31.294Z,99496.06
2023-03-19T02:58:13.129Z,99496.97
2023-03-19T02:58:55.282Z,99496.69
2023-03-19T02:59:37.167Z,99510.53
2023-03-19T03:00:19.077Z,99497.44
2023-03-19T03:01:01.675Z,99504.44
2023-03-19T03:01:43.942Z,99497.06
2023-03-19T03:02:26.343Z,99508.09
2023-03-19T03:03:08.903Z,99515.63
2023-03-19T03:03:50.818Z,99513.81
2023-03-19T03:04:34.877Z,99510.91
2023-03-19T03:05:16.683Z,99505.78
2023-03-19T03:05:58.443Z,99509.59
2023-03-19T03:06:40.686Z,99499.75
2023-03-19T03:07:22.930Z,99512.09
2023-03-19T03:08:05.093Z,99489.28
2023-03-19T03:08:47.050Z,99511.31
2023-03-19T03:09:28.745Z,99494.22
2023-03-19T03:10:11.265Z,99509.97
2023-03-19T03:10:52.950Z,99504.59
2023-03-19T03:11:34.806Z,99516.72
2023-03-19T03:12:16.558Z,99514.44
2023-03-19T03:12:59.228Z,99516.97
2023-03-19T03:13:41.554Z,99509.41
2023-03-19T03:14:24.670Z,99497.25
2023-03-19T03:15:08.586Z,99507.25
2023-03-19T03:15:51.628Z,99520.84
2023-03-19T03:16:33.566Z,99513.91
2023-03-19T03:17:15.659Z,99500.28
2023-03-19T03:17:57.502Z,99518.38
2023-03-19T03:18:39.330Z,99509.16
2023-03-19T03:19:21.741Z,99476.41
2023-03-19T03:20:05.275Z,99514.84
2023-03-19T03:20:47.410Z,99524.88
2023-03-19T03:21:29.760Z,99504.63
2023-03-19T03:22:11.853Z,99523.06
2023-03-19T03:22:54.074Z,99494.47
2023-03-19T03:23:36.755Z,99524.06
2023-03-19T03:24:18.852Z,99453.41
2023-03-19T03:25:01.318Z,99530.69
2023-03-19T03:25:45.428Z,99500.47
2023-03-19T03:26:27.237Z,99515.31
2023-03-19T03:27:09.489Z,99510.22
2023-03-19T03:27:52.103Z,99531.63
2023-03-19T03:28:33.855Z,99507.50
2023-03-19T03:29:15.651Z,99513.47
2023-03-19T03:29:57.950Z,99542.09
2023-03-19T03:30:39.664Z,99526.47
2023-03-19T03:31:22.196Z,99541.16
2023-03-19T03:32:06.798Z,99535.22
2023-03-19T03:32:48.686Z,99530.81
2023-03-19T03:33:30.737Z,99519.59
2023-03-19T03:34:12.430Z,99506.13
2023-03-19T03:34:54.157Z,99543.16
2023-03-19T03:35:36.298Z,99530.16
2023-03-19T03:36:18.335Z,99534.28
2023-03-19T03:37:00.094Z,99524.22
2023-03-19T03:37:42.312Z,99527.69
2023-03-19T03:38:25.186Z,99537.06
2023-03-19T03:39:06.882Z,99525.03
2023-03-19T03:39:48.686Z,99531.09
2023-03-19T03:40:30.849Z,99541.44
2023-03-19T03:41:12.688Z,99522.19
2023-03-19T03:41:54.806Z,99530.72
2023-03-19T03:42:40.017Z,99542.38
2023-03-19T03:43:23.416Z,99526.88
2023-03-19T03:44:05.578Z,99532.28
2023-03-19T03:44:49.860Z,99542.97
2023-03-19T03:45:32.074Z,99540.88
2023-03-19T03:46:14.290Z,99539.88
2023-03-19T03:46:56.810Z,99544.78
2023-03-19T03:47:39.547Z,99539.22
2023-03-19T03:48:22.091Z,99555.50
2023-03-19T03:49:04.510Z,99545.31
2023-03-19T03:49:46.255Z,99541.69
2023-03-19T03:50:28.477Z,99546.25
2023-03-19T03:51:13.599Z,99546.16
2023-03-19T03:51:55.683Z,99554.19
2023-03-19T03:52:38.237Z,99557.63
2023-03-19T03:53:20.343Z,99557.81
2023-03-19T03:54:02.226Z,99556.81
2023-03-19T03:54:44.289Z,99544.94
2023-03-19T03:55:26.081Z,99558.56
2023-03-19T03:56:08.261Z,99544.09
2023-03-19T03:56:50.750Z,99551.81
2023-03-19T03:57:32.539Z,99530.91
2023-03-19T03:58:14.339Z,99531.25
2023-03-19T03:58:56.528Z,99521.91
2023-03-19T03:59:38.432Z,99550.22
2023-03-19T04:00:20.605Z,99532.59
2023-03-19T04:01:02.507Z,99551.03
2023-03-19T04:01:45.678Z,99535.22
2023-03-19T04:02:27.991Z,99546.75
2023-03-19T04:03:10.353Z,99534.41
2023-03-19T04:03:52.196Z,99542.63
2023-03-19T04:04:34.363Z,99534.41
2023-03-19T04:05:17.542Z,99528.00
2023-03-19T04:05:59.334Z,99530.47
2023-03-19T04:06:41.435Z,99536.75
2023-03-19T04:07:31.243Z,99544.94
2023-03-19T04:08:13.975Z,99530.00
2023-03-19T04:08:55.858Z,99510.44
2023-03-19T04:09:37.971Z,99538.56
2023-03-19T04:10:19.995Z,99544.94
2023-03-19T04:11:06.856Z,99547.25
2023-03-19T04:11:51.337Z,99546.91
2023-03-19T04:12:34.873Z,99552.69
2023-03-19T04:13:16.672Z,99552.13
2023-03-19T04:13:58.888Z,99544.59
2023-03-19T04:14:43.462Z,99554.91
2023-03-19T04:15:25.375Z,99549.63
2023-03-19T04:16:11.011Z,99561.97
2023-03-19T04:16:53.011Z,99543.47
2023-03-19T04:17:35.702Z,99553.81
2023-03-19T04:18:17.495Z,99557.44
2023-03-19T04:18:59.191Z,99541.13
2023-03-19T04:19:41.128Z,99540.22
2023-03-19T04:20:23.681Z,99535.78
2023-03-19T04:21:06.521Z,99551.41
2023-03-19T04:21:48.308Z,99540.00
2023-03-19T04:22:31.720Z,99552.03
2023-03-19T04:23:14.464Z,99553.88
2023-03-19T04:23:56.239Z,99538.88
2023-03-19T04:24:39.183Z,99537.88
2023-03-19T04:25:20.926Z,99544.47
2023-03-19T04:26:06.840Z,99551.50
2023-03-19T04:26:49.801Z,99547.88
2023-03-19T04:27:32.524Z,99540.59
2023-03-19T04:28:14.365Z,99547.28
2023-03-19T04:28:58.086Z,99554.69
2023-03-19T04:29:40.219Z,99555.59
2023-03-19T04:30:22.545Z,99556.41
2023-03-19T04:31:09.287Z,99555.25
2023-03-19T04:31:54.618Z,99559.53
2023-03-19T04:32:36.975Z,99528.59
2023-03-19T04:33:19.220Z,99555.50
2023-03-19T04:34:01.049Z,99529.50
2023-03-19T04:34:42.925Z,99550.34
2023-03-19T04:35:24.854Z,99531.38
2023-03-19T04:36:07.370Z,99551.91
2023-03-19T04:36:51.854Z,99538.44
2023-03-19T04:37:33.846Z,99519.44
2023-03-19T04:38:15.750Z,99541.16
2023-03-19T04:38:58.309Z,99546.09
2023-03-19T04:39:40.667Z,99540.03
2023-03-19T04:40:22.594Z,99543.16
2023-03-19T04:41:05.016Z,99525.63
2023-03-19T04:41:50.311Z,99541.25
2023-03-19T04:42:41.433Z,99558.00
2023-03-19T04:43:28.584Z,99530.66
2023-03-19T04:44:10.419Z,99549.09
2023-03-19T04:44:54.862Z,99540.59
2023-03-19T04:45:41.027Z,99526.91
2023-03-19T04:46:23.117Z,99535.50
2023-03-19T04:47:05.276Z,99542.59
2023-03-19T04:47:59.202Z,99541.25
2023-03-19T04:48:41.819Z,99559.31
2023-03-19T04:49:24.541Z,99559.31
2023-03-19T04:50:08.261Z,99565.50
2023-03-19T04:50:53.149Z,99554.47
2023-03-19T04:51:35.148Z,99549.16
2023-03-19T04:52:16.913Z,99552.09
2023-03-19T04:52:58.797Z,99492.16
2023-03-19T04:53:41.312Z,99564.81
2023-03-19T04:54:24.333Z,99563.84
2023-03-19T04:55:07.901Z,99554.84
2023-03-19T04:56:02.568Z,99569.63
2023-03-19T04:56:44.760Z,99570.44
2023-03-19T04:57:27.053Z,99541.81
2023-03-19T04:58:10.998Z,99549.72
2023-03-19T04:58:53.691Z,99562.69
2023-03-19T04:59:35.590Z,99566.81
2023-03-19T05:00:17.840Z,99554.66
2023-03-19T05:01:01.723Z,99557.56
2023-03-19T05:02:03.776Z,99573.38
2023-03-19T05:02:47.541Z,99561.03
2023-03-19T05:03:29.674Z,99572.34
2023-03-19T05:04:12.308Z,99560.88
2023-03-19T05:04:54.482Z,99570.09
2023-03-19T05:05:36.410Z,99554.09
2023-03-19T05:06:22.029Z,99574.63
2023-03-19T05:07:04.132Z,99552.47
2023-03-19T05:07:46.427Z,99568.53
2023-03-19T05:08:28.942Z,99576.03
2023-03-19T05:09:10.895Z,99580.75
2023-03-19T05:09:52.758Z,99573.63
2023-03-19T05:10:37.378Z,99579.94
2023-03-19T05:11:19.673Z,99557.03
2023-03-19T05:12:21.879Z,99547.81
2023-03-19T05:13:07.165Z,99569.53
2023-03-19T05:13:53.165Z,99565.31
2023-03-19T05:14:34.949Z,99544.50
2023-03-19T05:15:22.753Z,99562.94
2023-03-19T05:16:14.709Z,99564.78
2023-03-19T05:16:57.051Z,99550.63
2023-03-19T05:17:40.323Z,99567.88
2023-03-19T05:18:36.408Z,99553.47
2023-03-19T05:19:18.694Z,99568.25
2023-03-19T05:20:01.461Z,99557.72
2023-03-19T05:20:45.733Z,99577.53
2023-03-19T05:21:37.807Z,99560.63
2023-03-19T05:22:20.336Z,99558.97
2023-03-19T05:23:02.864Z,99550.47
2023-03-19T05:23:54.843Z,99559.41
2023-03-19T05:24:36.750Z,99561.22
2023-03-19T05:25:19.489Z,99578.69
2023-03-19T05:26:01.844Z,99572.28
2023-03-19T05:27:07.596Z,99554.19
2023-03-19T05:28:12.601Z,99580.38
2023-03-19T05:28:54.378Z,99577.09
2023-03-19T05:29:44.532Z,99571.53
2023-03-19T05:30:43.580Z,99569.56
2023-03-19T05:31:45.567Z,99588.19
2023-03-19T05:32:28.140Z,99570.75
2023-03-19T05:33:10.183Z,99565.03
2023-03-19T05:33:55.588Z,99577.34
2023-03-19T05:34:37.751Z,99579.81
2023-03-19T05:35:19.930Z,99589.47
2023-03-19T05:36:01.965Z,99569.22
2023-03-19T05:37:01.063Z,99590.25
2023-03-19T05:37:43.284Z,99589.06
2023-03-19T05:38:25.354Z,99593.63
2023-03-19T05:39:11.653Z,99595.75
2023-03-19T05:39:56.129Z,99572.38
2023-03-19T05:40:37.958Z,99570.38
2023-03-19T05:41:33.236Z,99595.69
2023-03-19T05:42:18.531Z,99587.09
2023-03-19T05:43:00.742Z,99587.41
2023-03-19T05:43:44.200Z,99594.75
2023-03-19T05:44:34.719Z,99600.88
2023-03-19T05:45:25.727Z,99585.44
2023-03-19T05:46:10.480Z,99592.38
2023-03-19T05:46:53.220Z,99592.72
2023-03-19T05:47:37.146Z,99600.22
2023-03-19T05:48:18.959Z,99591.16
2023-03-19T05:49:04.538Z,99580.59
2023-03-19T05:49:46.293Z,99586.81
2023-03-19T05:50:28.825Z,99579.91
2023-03-19T05:51:25.654Z,99598.63
2023-03-19T05:52:07.931Z,99577.53
2023-03-19T05:52:49.901Z,99509.72
2023-03-19T05:53:31.863Z,99592.84
2023-03-19T05:54:49.435Z,99554.28
2023-03-19T05:55:50.016Z,99592.47
2023-03-19T05:56:32.843Z,99587.22
2023-03-19T05:57:34.796Z,99603.38
2023-03-19T05:58:31.756Z,99586.41
2023-03-19T05:59:14.131Z,99577.91
2023-03-19T05:59:59.369Z,99584.59
2023-03-19T06:00:56.661Z,99598.56
2023-03-19T06:01:38.861Z,99594.81
2023-03-19T06:02:20.816Z,99604.03
2023-03-19T06:03:04.084Z,99584.97
2023-03-19T06:04:05.500Z,99606.34
2023-03-19T06:04:47.822Z,99609.41
2023-03-19T06:05:31.962Z,99597.75
2023-03-19T06:06:20.452Z,99595.09
2023-03-19T06:07:07.201Z,99608.25
2023-03-19T06:07:50.347Z,99606.59
2023-03-19T06:08:53.025Z,99598.94
2023-03-19T06:09:49.161Z,99613.22
2023-03-19T06:10:30.987Z,99606.84
2023-03-19T06:11:15.937Z,99603.38
2023-03-19T06:12:00.893Z,99613.44
2023-03-19T06:13:05.496Z,99604.69
2023-03-19T06:13:53.773Z,99619.81
2023-03-19T06:14:37.616Z,99623.59
2023-03-19T06:15:39.627Z,99626.97
2023-03-19T06:16:28.550Z,99618.88
2023-03-19T06:17:11.287Z,99616.03
2023-03-19T06:17:53.585Z,99591.31
2023-03-19T06:18:35.622Z,99613.13
2023-03-19T06:19:22.825Z,99620.97
2023-03-19T06:20:05.200Z,99610.22
2023-03-19T06:20:48.199Z,99628.94
2023-03-19T06:21:31.607Z,99625.28
2023-03-19T06:22:16.799Z,99614.53
2023-03-19T06:22:58.603Z,99624.59
2023-03-19T06:23:40.657Z,99614.19
2023-03-19T06:24:23.659Z,99597.75
2023-03-19T06:25:06.675Z,99628.78
2023-03-19T06:25:54.225Z,99601.78
2023-03-19T06:26:38.428Z,99609.13
2023-03-19T06:27:27.385Z,99603.31
2023-03-19T06:28:21.628Z,99606.50
2023-03-19T06:29:04.386Z,99607.66
2023-03-19T06:29:46.607Z,99608.88
2023-03-19T06:30:36.009Z,99620.28
2023-03-19T06:31:22.139Z,99593.19
2023-03-19T06:32:10.170Z,99618.19
2023-03-19T06:32:55.132Z,99619.66
2023-03-19T06:33:38.076Z,99620.28
2023-03-19T06:34:20.004Z,99618.66
2023-03-19T06:35:02.981Z,99569.81
2023-03-19T06:35:44.787Z,99633.06
2023-03-19T06:36:27.102Z,99619.56
2023-03-19T06:37:09.152Z,99624.56
2023-03-19T06:37:52.400Z,99618.84
2023-03-19T06:38:35.848Z,99609.59
2023-03-19T06:39:17.605Z,99593.72
2023-03-19T06:40:00.620Z,99618.53
2023-03-19T06:40:42.627Z,99632.06
2023-03-19T06:41:25.117Z,99632.06
2023-03-19T06:42:08.413Z,99622.47
2023-03-19T06:42:50.813Z,99613.44
2023-03-19T06:43:36.983Z,99620.28
2023-03-19T06:44:19.005Z,99624.94
2023-03-19T06:45:01.387Z,99620.38
2023-03-19T06:45:43.032Z,99623.19
2023-03-19T06:46:24.860Z,99616.44
2023-03-19T06:47:08.558Z,99611.34
2023-03-19T06:47:53.546Z,99616.06
2023-03-19T06:48:35.719Z,99624.94
2023-03-19T06:49:17.980Z,99609.31
2023-03-19T06:50:00.907Z,99616.53
2023-03-19T06:50:42.810Z,99622.66
2023-03-19T06:51:27.665Z,99632.25
2023-03-19T06:52:09.547Z,99614.00
2023-03-19T06:52:51.228Z,99626.13
2023-03-19T06:53:33.290Z,99623.84
2023-03-19T06:54:14.949Z,99636.16
2023-03-19T06:54:56.774Z,99635.97
2023-03-19T06:55:38.798Z,99619.66
2023-03-19T06:56:21.038Z,99638.91
2023-03-19T06:57:02.892Z,99623.38
2023-03-19T06:57:48.530Z,99632.25
2023-03-19T06:58:30.305Z,99611.31
2023-03-19T06:59:14.261Z,99631.03
2023-03-19T06:59:56.276Z,99638.25
2023-03-19T07:00:38.010Z,99625.22
2023-03-19T07:01:19.739Z,99627.31
2023-03-19T07:02:02.229Z,99619.63
2023-03-19T07:02:44.769Z,99624.44
2023-03-19T07:03:26.468Z,99611.38
2023-03-19T07:04:09.188Z,99606.41
2023-03-19T07:04:50.927Z,99627.44
2023-03-19T07:05:32.821Z,99609.19
2023-03-19T07:06:14.748Z,99614.78
2023-03-19T07:06:56.701Z,99630.81
2023-03-19T07:07:38.586Z,99613.19
2023-03-19T07:08:20.693Z,99603.91
2023-03-19T07:09:03.356Z,99628.16
2023-03-19T07:09:45.433Z,99625.25
2023-03-19T07:10:27.839Z,99631.00
2023-03-19T07:11:09.912Z,99639.38
2023-03-19T07:11:51.549Z,99637.53
2023-03-19T07:12:33.335Z,99633.47
2023-03-19T07:13:15.435Z,99637.19
2023-03-19T07:13:57.201Z,99621.22
2023-03-19T07:14:38.872Z,99617.28
2023-03-19T07:15:21.529Z,99624.69
2023-03-19T07:16:03.510Z,99625.75
2023-03-19T07:16:45.619Z,99634.53
2023-03-19T07:17:27.454Z,99630.41
2023-03-19T07:18:09.264Z,99628.78
2023-03-19T07:18:50.927Z,99636.53
2023-03-19T07:19:32.514Z,99638.63
2023-03-19T07:20:14.589Z,99630.69
2023-03-19T07:20:56.310Z,99632.34
2023-03-19T07:21:38.050Z,99636.22
2023-03-19T07:22:20.144Z,99645.31
2023-03-19T07:23:02.049Z,99634.72
2023-03-19T07:23:43.792Z,99632.34
2023-03-19T07:24:25.559Z,99636.50
2023-03-19T07:25:07.805Z,99640.88
2023-03-19T07:25:49.692Z,99643.56
2023-03-19T07:26:31.552Z,99635.06
2023-03-19T07:27:13.389Z,99634.22
2023-03-19T07:27:56.175Z,99642.50
2023-03-19T07:28:38.034Z,99633.34
2023-03-19T07:29:19.904Z,99631.69
2023-03-19T07:30:01.756Z,99645.88
2023-03-19T07:30:43.439Z,99647.53
2023-03-19T07:31:25.321Z,99635.66
2023-03-19T07:32:07.716Z,99651.88
2023-03-19T07:32:49.755Z,99646.41
2023-03-19T07:33:34.495Z,99643.75
2023-03-19T07:34:16.233Z,99646.47
2023-03-19T07:34:58.088Z,99650.97
2023-03-19T07:35:39.810Z,99659.38
2023-03-19T07:36:22.054Z,99653.69
2023-03-19T07:37:03.752Z,99655.16
2023-03-19T07:37:45.456Z,99655.41
2023-03-19T07:38:27.155Z,99654.19
2023-03-19T07:39:08.925Z,99648.63
2023-03-19T07:39:52.963Z,99631.63
2023-03-19T07:40:34.912Z,99648.88
2023-03-19T07:41:17.394Z,99654.03
2023-03-19T07:41:59.170Z,99658.31
2023-03-19T07:42:41.631Z,99659.41
2023-03-19T07:43:24.646Z,99659.81
2023-03-19T07:44:06.674Z,99656.75
2023-03-19T07:44:49.606Z,99647.16
2023-03-19T07:45:31.597Z,99644.72
2023-03-19T07:46:13.928Z,99650.31
2023-03-19T07:46:55.817Z,99662.59
2023-03-19T07:47:37.778Z,99663.66
2023-03-19T07:48:19.999Z,99662.25
2023-03-19T07:49:01.813Z,99651.81
2023-03-19T07:49:43.628Z,99661.63
2023-03-19T07:50:25.574Z,99659.78
2023-03-19T07:51:07.367Z,99648.13
2023-03-19T07:51:49.364Z,99657.19
2023-03-19T07:52:31.366Z,99647.94
2023-03-19T07:53:13.357Z,99652.06
2023-03-19T07:53:55.265Z,99646.56
2023-03-19T07:54:37.313Z,99649.84
2023-03-19T07:55:19.117Z,99648.22
2023-03-19T07:56:00.847Z,99645.38
2023-03-19T07:56:42.862Z,99644.16
2023-03-19T07:57:25.888Z,99642.75
2023-03-19T07:58:07.956Z,99646.22
2023-03-19T07:58:49.733Z,99664.03
2023-03-19T07:59:31.465Z,99639.28
2023-03-19T08:00:13.531Z,99655.44
2023-03-19T08:00:55.599Z,99664.47
2023-03-19T08:01:37.412Z,99655.25
2023-03-19T08:02:22.339Z,99660.78
2023-03-19T08:03:04.903Z,99651.16
2023-03-19T08:03:48.460Z,99665.34
2023-03-19T08:04:30.602Z,99654.50
2023-03-19T08:05:12.712Z,99664.91
2023-03-19T08:05:54.454Z,99673.28
2023-03-19T08:06:36.206Z,99672.88
2023-03-19T08:07:18.073Z,99663.88
2023-03-19T08:07:59.766Z,99671.00
2023-03-19T08:08:41.767Z,99672.84
2023-03-19T08:09:23.431Z,99663.03
2023-03-19T08:10:05.607Z,99662.41
2023-03-19T08:10:48.160Z,99669.75
2023-03-19T08:11:30.183Z,99667.06
2023-03-19T08:12:12.091Z,99671.69
2023-03-19T08:12:54.186Z,99671.31
2023-03-19T08:13:36.053Z,99667.00
2023-03-19T08:14:22.375Z,99673.16
2023-03-19T08:15:04.389Z,99677.25
2023-03-19T08:15:46.269Z,99656.41
2023-03-19T08:16:28.013Z,99689.16
2023-03-19T08:17:09.848Z,99671.94
2023-03-19T08:17:58.561Z,99685.84
2023-03-19T08:18:40.547Z,99682.94
2023-03-19T08:19:23.156Z,99681.88
2023-03-19T08:20:14.354Z,99682.28
2023-03-19T08:20:55.970Z,99675.50
2023-03-19T08:21:38.213Z,99676.06
2023-03-19T08:22:19.898Z,99681.94
2023-03-19T08:23:01.681Z,99673.38
2023-03-19T08:23:43.479Z,99665.38
2023-03-19T08:24:25.407Z,99673.22
2023-03-19T08:25:07.908Z,99669.13
2023-03-19T08:25:51.916Z,99682.41
2023-03-19T08:26:33.620Z,99666.25
2023-03-19T08:27:15.265Z,99679.22
2023-03-19T08:27:57.005Z,99661.66
2023-03-19T08:28:38.818Z,99691.38
2023-03-19T08:29:20.973Z,99688.91
2023-03-19T08:30:04.886Z,99682.38
2023-03-19T08:30:46.580Z,99681.34
2023-03-19T08:31:28.274Z,99670.09
2023-03-19T08:32:10.267Z,99673.59
2023-03-19T08:32:52.150Z,99656.63
2023-03-19T08:33:33.959Z,99663.13
2023-03-19T08:34:15.744Z,99690.31
2023-03-19T08:34:57.455Z,99680.66
2023-03-19T08:35:39.390Z,99680.59
2023-03-19T08:36:21.258Z,99682.63
2023-03-19T08:37:02.942Z,99670.28
2023-03-19T08:37:44.800Z,99695.53
2023-03-19T08:38:26.525Z,99688.56
2023-03-19T08:39:08.624Z,99700.19
2023-03-19T08:39:52.174Z,99709.00
2023-03-19T08:40:34.140Z,99701.88
2023-03-19T08:41:16.148Z,99684.56